Time;durP1;ratioP1;P1;durP2;ratioP2;P2;SDS_P1;SDS_P2;PMS_P1;PMS_P2;Temp;Humidity;BMP_temperature;BMP_pressure;BME280_temperature;BME280_humidity;BME280_pressure;Samples;Min_cycle;Max_cycle;Signal;HPM_P1;HPM_P2
2023/11/26 00:01:31;;;;;;;11.57;4.80;;;-0.60;99.90;;;;;;4957319;29;20189;-87
2023/11/26 00:03:59;;;;;;;11.23;5.23;;;-0.70;99.90;;;;;;4940507;29;20195;-87
2023/11/26 00:06:30;;;;;;;9.27;4.80;;;-0.60;99.90;;;;;;4941238;29;20556;-86
2023/11/26 00:08:57;;;;;;;7.47;4.73;;;-0.70;99.90;;;;;;4957357;29;20192;-87
2023/11/26 00:11:25;;;;;;;9.03;5.07;;;-0.80;99.90;;;;;;4940799;29;20285;-87
2023/11/26 00:13:52;;;;;;;10.40;5.43;;;-0.70;99.90;;;;;;4939851;29;20720;-86
2023/11/26 00:16:20;;;;;;;11.90;5.00;;;-0.80;99.90;;;;;;4958703;29;20552;-86
2023/11/26 00:18:48;;;;;;;10.83;5.30;;;-0.80;99.90;;;;;;4942157;29;20199;-86
2023/11/26 00:21:17;;;;;;;8.03;5.03;;;-0.70;99.90;;;;;;4957175;29;20194;-84
2023/11/26 00:23:44;;;;;;;9.43;4.70;;;-0.70;99.90;;;;;;4956974;29;20204;-82
2023/11/26 00:26:11;;;;;;;9.70;5.10;;;-0.70;99.90;;;;;;4923599;29;20222;-82
2023/11/26 00:28:38;;;;;;;12.40;4.97;;;-0.70;99.90;;;;;;4955942;29;20191;-82
2023/11/26 00:31:06;;;;;;;8.57;4.43;;;-0.70;99.90;;;;;;4938554;29;20224;-81
2023/11/26 00:33:33;;;;;;;10.60;4.80;;;-0.70;99.90;;;;;;4939499;29;20659;-83
2023/11/26 00:36:00;;;;;;;12.80;5.17;;;-0.90;99.90;;;;;;4938717;29;20679;-83
2023/11/26 00:38:27;;;;;;;11.37;4.67;;;-0.70;99.90;;;;;;4955862;29;20226;-82
2023/11/26 00:40:55;;;;;;;9.57;4.63;;;-0.70;99.90;;;;;;4956293;29;20208;-84
2023/11/26 00:43:22;;;;;;;6.97;4.47;;;-0.60;99.90;;;;;;4956264;28;20235;-84
2023/11/26 00:45:49;;;;;;;9.23;4.43;;;-0.60;99.90;;;;;;4939630;29;20659;-83
2023/11/26 00:48:17;;;;;;;9.70;4.50;;;-0.60;99.90;;;;;;4956388;29;20200;-81
2023/11/26 00:50:44;;;;;;;9.50;4.77;;;-0.70;99.90;;;;;;4938910;29;20228;-85
2023/11/26 00:53:12;;;;;;;7.70;4.60;;;-0.80;99.90;;;;;;4956292;29;20202;-84
2023/11/26 00:55:39;;;;;;;8.93;4.30;;;-0.70;99.90;;;;;;4956187;29;20222;-84
2023/11/26 00:58:06;;;;;;;9.30;4.17;;;-0.50;99.90;;;;;;4939160;29;20464;-85
2023/11/26 01:00:34;;;;;;;9.93;4.73;;;-0.40;99.90;;;;;;4938648;29;20295;-84
2023/11/26 01:03:01;;;;;;;10.20;4.73;;;-0.40;99.90;;;;;;4955830;29;20194;-83
2023/11/26 01:05:29;;;;;;;9.17;4.90;;;-0.60;99.90;;;;;;4938827;29;20690;-84
2023/11/26 01:07:56;;;;;;;11.70;4.60;;;-0.60;99.90;;;;;;4922669;29;20205;-84
2023/11/26 01:10:23;;;;;;;10.10;5.33;;;-0.60;99.90;;;;;;4922441;29;20319;-85
2023/11/26 01:12:51;;;;;;;10.13;4.93;;;-0.70;99.90;;;;;;4939046;29;20200;-86
2023/11/26 01:15:19;;;;;;;10.23;4.90;;;-0.70;99.90;;;;;;4956111;29;20194;-86
2023/11/26 01:17:47;;;;;;;11.30;5.00;;;-0.60;99.90;;;;;;4956162;29;20199;-85
2023/11/26 01:20:15;;;;;;;11.93;5.40;;;-0.80;99.90;;;;;;4939057;29;20195;-86
2023/11/26 01:22:43;;;;;;;10.57;5.10;;;-0.80;99.90;;;;;;4955223;29;20229;-82
2023/11/26 01:25:10;;;;;;;11.07;5.23;;;-0.80;99.90;;;;;;4954337;28;20246;-83
2023/11/26 01:27:37;;;;;;;11.70;5.43;;;-0.90;99.90;;;;;;4955514;29;20282;-84
2023/11/26 01:30:06;;;;;;;11.17;4.90;;;-0.80;99.90;;;;;;4938320;29;20200;-83
2023/11/26 01:32:35;;;;;;;10.10;5.40;;;-0.90;99.90;;;;;;4955348;29;20277;-82
2023/11/26 01:35:03;;;;;;;8.37;4.87;;;-0.90;99.90;;;;;;4938145;29;20652;-83
2023/11/26 01:37:30;;;;;;;10.03;5.33;;;-0.90;99.90;;;;;;4938451;29;20205;-84
2023/11/26 01:39:57;;;;;;;9.67;4.80;;;-1.00;99.90;;;;;;4955069;29;20661;-84
2023/11/26 01:42:25;;;;;;;9.13;5.13;;;-1.00;99.90;;;;;;4954908;29;20245;-84
2023/11/26 01:44:54;;;;;;;8.43;5.10;;;-1.00;99.90;;;;;;4938432;28;20232;-88
2023/11/26 01:47:24;;;;;;;10.47;5.00;;;-1.00;99.90;;;;;;4961098;28;20304;-88
2023/11/26 01:49:52;;;;;;;9.77;5.10;;;-1.00;99.90;;;;;;4979122;28;20210;-87
2023/11/26 01:52:20;;;;;;;10.00;4.93;;;-1.00;99.90;;;;;;4971505;28;20233;-87
2023/11/26 01:54:48;;;;;;;8.83;4.97;;;-1.10;99.90;;;;;;4967035;28;20197;-87
2023/11/26 01:57:18;;;;;;;8.27;4.77;;;-1.10;99.90;;;;;;4966567;28;20214;-89
2023/11/26 01:59:46;;;;;;;10.90;4.80;;;-1.10;99.90;;;;;;4958588;28;20640;-89
2023/11/26 02:02:17;;;;;;;8.37;4.83;;;-1.20;99.90;;;;;;4975647;28;20200;-90
2023/11/26 02:04:45;;;;;;;8.57;4.73;;;-1.10;99.90;;;;;;4976640;28;20202;-86
2023/11/26 02:07:12;;;;;;;8.83;4.67;;;-1.10;99.90;;;;;;4975369;28;20596;-87
2023/11/26 02:09:41;;;;;;;9.93;5.03;;;-1.00;99.90;;;;;;4958482;28;20194;-89
2023/11/26 02:12:13;;;;;;;10.93;4.97;;;-1.10;99.90;;;;;;4959048;28;20222;-88
2023/11/26 02:14:46;;;;;;;8.77;4.83;;;-1.00;99.90;;;;;;4943481;28;20205;-89
2023/11/26 02:17:15;;;;;;;8.93;4.57;;;-0.90;99.90;;;;;;4942069;28;20211;-87
2023/11/26 02:19:44;;;;;;;7.90;4.23;;;-0.90;99.90;;;;;;4976830;28;20197;-88
2023/11/26 02:22:14;;;;;;;7.00;4.00;;;-1.00;99.90;;;;;;4942332;28;20206;-85
2023/11/26 02:24:48;;;;;;;7.63;4.50;;;-1.10;99.90;;;;;;4975792;28;20206;-87
2023/11/26 02:27:16;;;;;;;6.37;3.80;;;-1.10;99.90;;;;;;4961228;28;20216;-88
2023/11/26 02:29:44;;;;;;;6.97;3.93;;;-1.10;99.90;;;;;;4958732;28;20708;-87
2023/11/26 02:32:12;;;;;;;8.40;4.30;;;-1.10;99.90;;;;;;4975961;28;20224;-87
2023/11/26 02:34:39;;;;;;;7.93;4.10;;;-1.00;99.90;;;;;;4957332;28;20194;-86
2023/11/26 02:37:08;;;;;;;6.10;4.00;;;-1.00;99.90;;;;;;4977244;28;20257;-87
2023/11/26 02:39:41;;;;;;;6.43;4.00;;;-0.90;99.90;;;;;;4979889;28;20197;-89
2023/11/26 02:42:12;;;;;;;6.80;4.20;;;-0.90;99.90;;;;;;4962136;28;20225;-88
2023/11/26 02:44:42;;;;;;;5.60;3.87;;;-0.90;99.90;;;;;;4946909;28;20245;-89
2023/11/26 02:47:11;;;;;;;5.80;3.70;;;-0.90;99.90;;;;;;4962907;28;20212;-87
2023/11/26 02:49:38;;;;;;;5.93;3.80;;;-0.80;99.90;;;;;;4961000;28;20217;-88
2023/11/26 02:52:24;;;;;;;7.23;4.00;;;-0.90;99.90;;;;;;4960842;28;20307;-88
2023/11/26 02:55:01;;;;;;;5.20;3.60;;;-0.90;99.90;;;;;;4962003;28;20185;-88
2023/11/26 02:57:28;;;;;;;5.90;3.80;;;-0.80;99.90;;;;;;4960919;28;20639;-88
2023/11/26 02:59:57;;;;;;;6.93;3.70;;;-0.80;99.90;;;;;;4960561;28;20201;-88
2023/11/26 03:02:25;;;;;;;5.87;4.00;;;-0.90;99.90;;;;;;4959949;28;20257;-88
2023/11/26 03:04:59;;;;;;;7.77;3.97;;;-0.80;99.90;;;;;;4960806;28;20658;-86
2023/11/26 03:07:27;;;;;;;5.73;3.60;;;-0.80;99.90;;;;;;4978654;28;20173;-88
2023/11/26 03:15:45;;;;;;;5.47;3.60;;;-0.90;99.90;;;;;;4899336;29;20287;-88
2023/11/26 03:18:13;;;;;;;5.60;3.83;;;-0.80;99.90;;;;;;4883652;29;20216;-88
2023/11/26 03:20:42;;;;;;;6.37;3.97;;;-0.80;99.90;;;;;;4884126;29;20194;-87
2023/11/26 03:23:13;;;;;;;6.17;4.17;;;-0.90;99.90;;;;;;4884046;29;20200;-89
2023/11/26 03:25:41;;;;;;;7.60;4.13;;;-0.80;99.90;;;;;;4884106;29;20363;-89
2023/11/26 03:28:13;;;;;;;7.63;4.10;;;-0.80;99.90;;;;;;4884687;29;20318;-87
2023/11/26 03:30:46;;;;;;;10.87;4.60;;;-1.00;99.90;;;;;;4884872;29;20283;-89
2023/11/26 03:33:17;;;;;;;6.67;4.07;;;-0.70;99.90;;;;;;4885434;29;20197;-89
2023/11/26 03:35:56;;;;;;;6.43;3.80;;;-0.70;99.90;;;;;;4903042;29;20269;-90
2023/11/26 03:38:34;;;;;;;5.90;4.30;;;-0.60;99.90;;;;;;4875204;29;20208;-90
2023/11/26 03:41:08;;;;;;;7.40;4.07;;;-0.60;99.90;;;;;;4868105;29;20258;-87
2023/11/26 03:43:35;;;;;;;7.30;4.27;;;-0.60;99.90;;;;;;4882530;29;20233;-86
2023/11/26 03:46:03;;;;;;;6.87;4.50;;;-0.50;99.90;;;;;;4897593;29;20205;-86
2023/11/26 03:48:33;;;;;;;6.90;4.40;;;-0.50;99.90;;;;;;4896964;29;20196;-86
2023/11/26 03:51:01;;;;;;;8.87;4.40;;;-0.60;99.90;;;;;;4908386;28;20225;-87
2023/11/26 03:53:29;;;;;;;6.23;4.10;;;-0.70;99.90;;;;;;4976020;28;20200;-84
2023/11/26 03:55:56;;;;;;;8.53;4.63;;;-0.70;99.90;;;;;;4958977;28;20582;-86
2023/11/26 03:58:24;;;;;;;6.03;4.10;;;-0.70;99.90;;;;;;4943139;28;20201;-86
2023/11/26 04:00:52;;;;;;;9.10;4.70;;;-0.60;99.90;;;;;;4959248;28;20222;-86
2023/11/26 04:03:20;;;;;;;7.03;4.20;;;-0.60;99.90;;;;;;4959231;28;20252;-85
2023/11/26 04:05:47;;;;;;;8.07;4.90;;;-0.50;99.90;;;;;;4976414;28;20182;-86
2023/11/26 04:08:14;;;;;;;8.27;4.60;;;-0.50;99.90;;;;;;4976322;28;20277;-86
2023/11/26 04:10:44;;;;;;;7.17;4.93;;;-0.70;99.90;;;;;;4976768;28;20216;-86
2023/11/26 04:13:12;;;;;;;8.70;4.77;;;-0.70;99.90;;;;;;4959231;28;20232;-86
2023/11/26 04:15:54;;;;;;;7.60;4.83;;;-0.70;99.90;;;;;;4976524;28;20311;-86
2023/11/26 04:18:22;;;;;;;6.60;4.53;;;-0.70;99.90;;;;;;4959576;28;20299;-88
2023/11/26 04:20:49;;;;;;;6.30;4.53;;;-0.80;99.90;;;;;;4958051;28;20248;-86
2023/11/26 04:23:18;;;;;;;6.97;4.90;;;-0.70;99.90;;;;;;4975181;28;20261;-86
2023/11/26 04:25:46;;;;;;;7.90;4.73;;;-0.60;99.90;;;;;;4958102;28;20224;-86
2023/11/26 04:28:13;;;;;;;7.30;4.77;;;-0.70;99.90;;;;;;4976242;28;20227;-87
2023/11/26 04:30:41;;;;;;;7.83;4.73;;;-0.70;99.90;;;;;;4976122;28;20191;-87
2023/11/26 04:33:09;;;;;;;7.17;4.67;;;-0.70;99.90;;;;;;4957904;28;20338;-86
2023/11/26 04:35:37;;;;;;;7.27;4.90;;;-0.80;99.90;;;;;;4943134;28;20250;-88
2023/11/26 04:38:04;;;;;;;6.47;4.60;;;-0.80;99.90;;;;;;4942858;28;20684;-87
2023/11/26 04:40:31;;;;;;;7.53;4.40;;;-0.80;99.90;;;;;;4959182;28;20215;-88
2023/11/26 04:42:59;;;;;;;8.63;4.87;;;-0.80;99.90;;;;;;4958160;28;20199;-88
2023/11/26 04:45:27;;;;;;;7.27;4.60;;;-0.80;99.90;;;;;;4956468;29;20189;-87
2023/11/26 04:47:54;;;;;;;7.23;4.53;;;-0.60;99.90;;;;;;4956757;29;20190;-87
2023/11/26 04:50:22;;;;;;;8.03;4.60;;;-0.60;99.90;;;;;;4956971;29;20670;-87
2023/11/26 04:52:50;;;;;;;8.87;4.43;;;-0.60;99.90;;;;;;4956809;29;20219;-87
2023/11/26 04:55:22;;;;;;;7.20;4.63;;;-0.60;99.90;;;;;;4956917;29;20256;-87
2023/11/26 04:57:52;;;;;;;7.90;5.03;;;-0.70;99.90;;;;;;4939656;29;20656;-87
2023/11/26 05:00:21;;;;;;;6.40;4.10;;;-0.80;99.90;;;;;;4956114;28;20195;-87
2023/11/26 05:02:50;;;;;;;7.40;4.63;;;-0.70;99.90;;;;;;4938925;29;20248;-87
2023/11/26 05:05:18;;;;;;;8.10;4.47;;;-0.80;99.90;;;;;;4939439;29;20201;-87
2023/11/26 05:07:46;;;;;;;7.77;4.63;;;-0.80;99.90;;;;;;4939463;29;20565;-88
2023/11/26 05:10:15;;;;;;;6.10;4.47;;;-0.80;99.90;;;;;;4955559;29;20190;-87
2023/11/26 05:12:43;;;;;;;5.77;4.50;;;-0.80;99.90;;;;;;4922429;29;20736;-86
2023/11/26 05:15:10;;;;;;;5.33;3.83;;;-0.80;99.90;;;;;;4955532;29;20196;-87
2023/11/26 05:17:38;;;;;;;6.37;4.07;;;-0.70;99.90;;;;;;4938838;29;20652;-87
2023/11/26 05:20:13;;;;;;;6.07;4.00;;;-0.70;99.90;;;;;;4956495;29;20199;-88
2023/11/26 05:22:41;;;;;;;5.63;4.10;;;-0.60;99.90;;;;;;4959971;29;20199;-85
2023/11/26 05:25:09;;;;;;;5.47;4.10;;;-0.70;99.90;;;;;;4960091;29;20209;-86
2023/11/26 05:27:36;;;;;;;7.23;4.60;;;-0.80;99.90;;;;;;4959334;29;20224;-86
2023/11/26 05:30:05;;;;;;;6.80;4.33;;;-0.70;99.90;;;;;;4959415;29;20221;-86
2023/11/26 05:32:32;;;;;;;5.63;3.90;;;-0.80;99.90;;;;;;4940189;29;20222;-87
2023/11/26 05:35:12;;;;;;;7.27;4.33;;;-0.80;99.90;;;;;;4955308;29;20617;-90
2023/11/26 05:37:40;;;;;;;6.90;4.20;;;-0.80;99.90;;;;;;4956604;29;20223;-88
2023/11/26 05:40:12;;;;;;;6.87;3.93;;;-0.90;99.90;;;;;;4939050;29;20698;-89
2023/11/26 05:42:40;;;;;;;6.17;4.53;;;-0.90;99.90;;;;;;4939488;29;20298;-89
2023/11/26 05:45:08;;;;;;;8.87;4.40;;;-0.80;99.90;;;;;;4956690;28;20209;-88
2023/11/26 05:47:41;;;;;;;7.77;4.67;;;-0.80;99.90;;;;;;4966482;28;20194;-90
2023/11/26 05:50:18;;;;;;;7.10;4.40;;;-0.70;99.90;;;;;;4982859;28;20274;-90
2023/11/26 05:52:51;;;;;;;7.07;4.13;;;-0.70;99.90;;;;;;4942511;28;20237;-86
2023/11/26 05:55:21;;;;;;;7.83;4.50;;;-0.50;99.90;;;;;;4982036;28;20205;-89
2023/11/26 05:57:49;;;;;;;8.33;4.47;;;-0.70;99.90;;;;;;4975021;28;20195;-88
2023/11/26 06:00:18;;;;;;;8.43;4.33;;;-0.70;99.90;;;;;;4975307;28;20193;-89
2023/11/26 06:02:51;;;;;;;6.07;4.27;;;-0.70;99.90;;;;;;4959094;28;20197;-89
2023/11/26 06:05:22;;;;;;;6.57;4.43;;;-0.60;99.90;;;;;;4975525;28;20197;-87
2023/11/26 06:07:50;;;;;;;7.27;4.40;;;-0.70;99.90;;;;;;4975130;28;20194;-88
2023/11/26 06:10:17;;;;;;;7.07;4.87;;;-0.70;99.90;;;;;;4974428;28;20194;-90
2023/11/26 06:12:45;;;;;;;6.70;4.37;;;-0.70;99.90;;;;;;4957599;28;20582;-89
2023/11/26 06:15:13;;;;;;;7.27;4.57;;;-0.80;99.90;;;;;;4957224;28;20618;-90
2023/11/26 06:17:40;;;;;;;8.27;4.90;;;-0.80;99.90;;;;;;4958382;28;20584;-89
2023/11/26 06:20:09;;;;;;;5.93;4.13;;;-0.80;99.90;;;;;;4974901;28;20190;-88
2023/11/26 06:22:36;;;;;;;6.80;4.23;;;-0.80;99.90;;;;;;4974670;28;20226;-88
2023/11/26 06:25:09;;;;;;;7.30;4.40;;;-0.70;99.90;;;;;;4957029;28;20276;-87
2023/11/26 06:27:37;;;;;;;7.10;4.53;;;-0.70;99.90;;;;;;4957406;28;20202;-87
2023/11/26 06:30:06;;;;;;;7.17;4.40;;;-0.90;99.90;;;;;;4975461;28;20201;-87
2023/11/26 06:32:35;;;;;;;7.37;4.30;;;-0.90;99.90;;;;;;4975123;28;20748;-86
2023/11/26 06:35:02;;;;;;;7.27;4.70;;;-0.80;99.90;;;;;;4957290;28;20283;-86
2023/11/26 06:37:29;;;;;;;10.10;4.77;;;-0.80;99.90;;;;;;4975414;28;20246;-86
2023/11/26 06:39:57;;;;;;;7.20;4.60;;;-0.70;99.90;;;;;;4974304;28;20273;-88
2023/11/26 06:42:24;;;;;;;6.93;4.60;;;-0.80;99.90;;;;;;4974796;28;20212;-89
2023/11/26 06:44:52;;;;;;;6.97;4.63;;;-0.80;99.90;;;;;;4957302;28;20236;-88
2023/11/26 06:47:19;;;;;;;6.53;4.70;;;-0.70;99.90;;;;;;4974576;28;20641;-88
2023/11/26 06:49:47;;;;;;;6.67;4.53;;;-0.70;99.90;;;;;;4975209;28;20240;-88
2023/11/26 06:52:14;;;;;;;7.67;4.60;;;-0.70;99.90;;;;;;4974873;28;20232;-88
2023/11/26 06:54:41;;;;;;;9.90;4.90;;;-0.70;99.90;;;;;;4976021;28;20203;-87
2023/11/26 06:57:09;;;;;;;7.33;4.50;;;-0.70;99.90;;;;;;4974862;28;20216;-88
2023/11/26 06:59:37;;;;;;;9.83;4.80;;;-0.60;99.90;;;;;;4957794;28;20227;-88
2023/11/26 07:02:08;;;;;;;7.13;4.27;;;-0.60;99.90;;;;;;4957592;28;20255;-87
2023/11/26 07:04:36;;;;;;;7.57;4.50;;;-0.60;99.90;;;;;;4974503;28;20184;-87
2023/11/26 07:07:04;;;;;;;6.93;4.73;;;-0.60;99.90;;;;;;4975062;28;20209;-87
2023/11/26 07:09:32;;;;;;;7.53;4.50;;;-0.60;99.90;;;;;;4974510;28;20192;-87
2023/11/26 07:12:00;;;;;;;7.33;4.50;;;-0.60;99.90;;;;;;4956292;28;20277;-87
2023/11/26 07:14:28;;;;;;;7.53;4.80;;;-0.50;99.90;;;;;;4974654;28;20540;-86
2023/11/26 07:16:55;;;;;;;8.83;5.20;;;-0.50;99.90;;;;;;4974291;28;20197;-86
2023/11/26 07:19:23;;;;;;;6.07;4.43;;;-0.60;99.90;;;;;;4957086;28;20204;-86
2023/11/26 07:21:50;;;;;;;7.40;5.10;;;-0.50;99.90;;;;;;4974168;28;20198;-86
2023/11/26 07:24:17;;;;;;;7.43;4.90;;;-0.40;99.90;;;;;;4975938;28;20646;-87
2023/11/26 07:26:44;;;;;;;9.90;4.70;;;-0.20;99.90;;;;;;4960199;28;20228;-86
2023/11/26 07:29:11;;;;;;;6.73;4.70;;;-0.30;99.90;;;;;;4960345;28;20210;-86
2023/11/26 07:31:39;;;;;;;6.70;4.40;;;-0.20;99.90;;;;;;4960839;28;20197;-86
2023/11/26 07:34:06;;;;;;;6.57;3.93;;;-0.10;99.90;;;;;;4977740;28;20542;-86
2023/11/26 07:36:33;;;;;;;7.80;4.10;;;-0.10;99.90;;;;;;4977268;28;20254;-86
2023/11/26 07:39:01;;;;;;;6.03;4.23;;;-0.20;99.90;;;;;;4976886;28;20203;-86
2023/11/26 07:41:28;;;;;;;7.23;4.47;;;-0.30;99.90;;;;;;4960177;28;20232;-86
2023/11/26 07:43:55;;;;;;;7.20;4.33;;;-0.40;99.90;;;;;;4959302;28;20271;-86
2023/11/26 07:46:23;;;;;;;6.93;4.47;;;-0.60;99.90;;;;;;4976448;28;20204;-86
2023/11/26 07:48:51;;;;;;;8.70;4.80;;;-0.70;99.90;;;;;;4959471;28;20194;-87
2023/11/26 07:51:18;;;;;;;6.13;4.50;;;-0.60;99.90;;;;;;4977323;28;20643;-86
2023/11/26 07:53:46;;;;;;;7.20;5.07;;;-0.50;99.90;;;;;;4977408;28;20216;-86
2023/11/26 07:56:17;;;;;;;7.93;5.07;;;-0.50;99.90;;;;;;4959731;28;20221;-85
2023/11/26 07:58:45;;;;;;;8.43;4.77;;;-0.40;99.90;;;;;;4928082;28;20694;-86
2023/11/26 08:01:13;;;;;;;10.10;5.53;;;-0.40;99.90;;;;;;4976864;28;20187;-87
2023/11/26 08:03:41;;;;;;;8.90;5.20;;;-0.30;99.90;;;;;;4943586;28;20254;-86
2023/11/26 08:06:12;;;;;;;9.30;5.10;;;-0.20;99.90;;;;;;4959572;28;20209;-87
2023/11/26 08:08:40;;;;;;;8.40;4.73;;;-0.20;99.90;;;;;;4976966;28;20199;-88
2023/11/26 08:11:10;;;;;;;6.67;4.77;;;-0.20;99.90;;;;;;4963860;28;20247;-87
2023/11/26 08:13:41;;;;;;;8.47;4.70;;;0.00;99.90;;;;;;4983453;28;20220;-88
2023/11/26 08:16:09;;;;;;;6.87;4.43;;;0.00;99.90;;;;;;4983742;28;20200;-86
2023/11/26 08:18:41;;;;;;;6.67;4.73;;;0.00;99.90;;;;;;4947302;28;20207;-87
2023/11/26 08:21:08;;;;;;;9.03;4.73;;;0.10;99.90;;;;;;4944240;28;20249;-86
2023/11/26 08:23:41;;;;;;;7.67;4.60;;;0.50;99.90;;;;;;4943453;28;20213;-84
2023/11/26 08:26:09;;;;;;;6.57;4.30;;;0.50;99.90;;;;;;4958787;28;20307;-83
2023/11/26 08:28:41;;;;;;;6.83;4.23;;;0.30;99.90;;;;;;4975988;28;20201;-85
2023/11/26 08:31:10;;;;;;;6.60;4.53;;;0.40;99.90;;;;;;4976521;28;20197;-87
2023/11/26 08:33:42;;;;;;;6.17;4.47;;;0.60;99.90;;;;;;4959191;28;20221;-86
2023/11/26 08:36:14;;;;;;;6.30;3.90;;;0.70;99.90;;;;;;4959720;28;20195;-87
2023/11/26 08:38:41;;;;;;;6.10;4.27;;;0.40;99.90;;;;;;4976649;28;20197;-86
2023/11/26 08:41:20;;;;;;;7.30;4.07;;;0.20;99.90;;;;;;4976379;28;20219;-86
2023/11/26 08:43:50;;;;;;;5.60;4.23;;;0.20;99.90;;;;;;4961099;28;20241;-86
2023/11/26 08:46:21;;;;;;;5.10;4.03;;;0.30;99.90;;;;;;4976963;28;20587;-86
2023/11/26 08:48:52;;;;;;;6.77;4.40;;;0.10;99.90;;;;;;4959613;28;20728;-85
2023/11/26 08:51:20;;;;;;;7.83;4.43;;;-0.20;99.90;;;;;;4958777;28;20203;-87
2023/11/26 08:53:47;;;;;;;6.13;4.13;;;-0.10;99.90;;;;;;4975873;28;20613;-86
2023/11/26 08:56:17;;;;;;;5.63;4.17;;;0.10;99.90;;;;;;4976610;28;20213;-86
2023/11/26 08:58:47;;;;;;;5.73;4.10;;;0.50;99.90;;;;;;4959953;28;20285;-85
2023/11/26 09:01:15;;;;;;;6.23;4.17;;;0.60;99.90;;;;;;4959052;28;20652;-86
2023/11/26 09:03:42;;;;;;;5.30;3.80;;;0.80;99.90;;;;;;4977176;28;20585;-86
2023/11/26 09:06:09;;;;;;;5.87;3.70;;;0.80;99.90;;;;;;4976601;28;20201;-86
2023/11/26 09:08:40;;;;;;;6.00;3.97;;;0.60;99.90;;;;;;4976311;28;20198;-87
2023/11/26 09:11:07;;;;;;;6.30;4.10;;;0.40;99.90;;;;;;4978447;28;20219;-87
2023/11/26 09:13:35;;;;;;;5.77;4.33;;;0.40;99.90;;;;;;4975367;28;20697;-87
2023/11/26 09:16:06;;;;;;;6.50;4.33;;;0.10;99.90;;;;;;4975910;28;20205;-86
2023/11/26 09:18:37;;;;;;;5.87;4.27;;;0.30;99.90;;;;;;4976695;28;20680;-87
2023/11/26 09:21:04;;;;;;;6.20;4.30;;;0.50;99.90;;;;;;4976716;28;20279;-86
2023/11/26 09:23:36;;;;;;;7.73;4.70;;;0.60;99.90;;;;;;4976575;28;20234;-87
2023/11/26 09:26:04;;;;;;;5.77;4.37;;;0.40;99.90;;;;;;4943888;28;20220;-87
2023/11/26 09:28:32;;;;;;;6.93;4.47;;;0.50;99.90;;;;;;4958765;28;20198;-87
2023/11/26 09:30:59;;;;;;;7.33;4.53;;;0.50;99.90;;;;;;4958494;28;20276;-88
2023/11/26 09:33:27;;;;;;;6.37;4.40;;;0.30;99.90;;;;;;4942637;28;20293;-87
2023/11/26 09:35:55;;;;;;;6.63;4.60;;;0.10;99.90;;;;;;4975973;28;20281;-86
2023/11/26 09:38:23;;;;;;;7.27;4.73;;;0.00;99.90;;;;;;4975692;28;20553;-88
2023/11/26 09:40:50;;;;;;;8.13;4.93;;;-0.10;99.90;;;;;;4975658;28;20216;-88
2023/11/26 09:43:17;;;;;;;7.53;4.70;;;-0.10;99.90;;;;;;4972890;28;20231;-88
2023/11/26 09:45:45;;;;;;;8.70;4.67;;;-0.20;99.90;;;;;;4938951;29;20721;-87
2023/11/26 09:48:14;;;;;;;6.40;4.60;;;0.00;99.90;;;;;;4925983;29;20267;-86
2023/11/26 09:50:42;;;;;;;6.23;4.50;;;0.20;99.90;;;;;;4955722;29;20195;-87
2023/11/26 09:53:12;;;;;;;7.23;4.60;;;0.30;99.90;;;;;;4956782;29;20232;-88
2023/11/26 09:55:40;;;;;;;6.20;4.43;;;0.30;99.90;;;;;;4923680;29;20782;-86
2023/11/26 09:58:08;;;;;;;6.30;4.47;;;0.20;99.90;;;;;;4923533;29;20194;-86
2023/11/26 10:00:35;;;;;;;7.50;4.60;;;0.20;99.90;;;;;;4938132;29;20198;-85
2023/11/26 10:03:03;;;;;;;6.73;4.60;;;0.20;99.90;;;;;;4938676;29;20277;-85
2023/11/26 10:05:35;;;;;;;7.03;4.73;;;0.40;99.90;;;;;;4940874;29;20190;-88
2023/11/26 10:08:03;;;;;;;5.77;4.30;;;0.20;99.90;;;;;;4957120;29;20701;-88
2023/11/26 10:10:30;;;;;;;7.33;4.20;;;0.40;99.90;;;;;;4939091;29;20604;-88
2023/11/26 10:13:00;;;;;;;8.77;4.23;;;0.30;99.90;;;;;;4956025;29;20217;-88
2023/11/26 10:15:31;;;;;;;6.77;4.30;;;0.20;99.90;;;;;;4955848;29;20223;-87
2023/11/26 10:18:09;;;;;;;6.53;4.10;;;0.50;99.90;;;;;;4955940;29;20189;-87
2023/11/26 10:20:39;;;;;;;6.27;4.30;;;0.60;99.90;;;;;;4924255;29;20205;-86
2023/11/26 10:23:08;;;;;;;6.27;4.10;;;0.80;99.90;;;;;;4955970;29;20240;-87
2023/11/26 10:25:42;;;;;;;6.60;4.40;;;0.60;99.90;;;;;;4938566;29;20226;-88
2023/11/26 10:28:14;;;;;;;7.17;4.00;;;0.80;99.90;;;;;;4955926;29;20180;-89
2023/11/26 10:30:42;;;;;;;6.77;4.50;;;1.00;99.90;;;;;;4938299;29;20203;-82
2023/11/26 10:33:12;;;;;;;7.00;4.10;;;1.10;99.90;;;;;;4921489;29;20226;-82
2023/11/26 10:35:51;;;;;;;8.73;4.83;;;1.10;99.90;;;;;;4954209;29;20189;-82
2023/11/26 10:38:34;;;;;;;5.70;3.87;;;1.10;99.90;;;;;;4954317;29;20205;-83
2023/11/26 10:41:03;;;;;;;7.63;4.07;;;0.90;99.90;;;;;;4937043;29;20227;-80
2023/11/26 10:43:35;;;;;;;7.10;4.33;;;0.90;99.90;;;;;;4954206;28;20256;-82
2023/11/26 10:46:14;;;;;;;8.37;4.67;;;1.00;99.90;;;;;;4939225;29;20195;-82
2023/11/26 10:48:50;;;;;;;7.30;4.57;;;1.20;99.90;;;;;;4954188;29;20187;-82
2023/11/26 10:51:26;;;;;;;5.30;3.93;;;1.30;99.90;;;;;;4936916;29;20208;-81
2023/11/26 10:54:05;;;;;;;7.50;4.70;;;1.20;99.90;;;;;;4937458;29;20225;-83
2023/11/26 10:56:40;;;;;;;7.80;4.53;;;1.20;99.90;;;;;;4936800;29;20759;-82
2023/11/26 10:59:09;;;;;;;7.27;4.27;;;1.20;99.90;;;;;;4940567;29;20253;-82
2023/11/26 11:01:37;;;;;;;6.43;4.17;;;1.10;99.90;;;;;;4940995;29;20568;-83
2023/11/26 11:04:14;;;;;;;6.23;3.60;;;1.10;99.90;;;;;;4958181;29;20698;-84
2023/11/26 11:06:45;;;;;;;8.03;4.10;;;1.10;99.90;;;;;;4942995;29;20188;-84
2023/11/26 11:09:35;;;;;;;7.00;3.87;;;1.10;99.90;;;;;;4941089;29;20227;-90
2023/11/26 11:12:08;;;;;;;6.87;3.67;;;1.00;99.90;;;;;;4942746;29;20447;-87
2023/11/26 11:14:36;;;;;;;6.63;3.53;;;1.00;99.90;;;;;;4959093;29;20244;-83
2023/11/26 11:17:08;;;;;;;7.47;3.27;;;1.20;99.90;;;;;;4941690;29;20208;-88
2023/11/26 11:19:55;;;;;;;4.27;2.87;;;1.30;99.90;;;;;;4943447;29;20185;-88
2023/11/26 11:22:42;;;;;;;4.97;2.57;;;1.30;99.90;;;;;;4942512;29;20292;-86
2023/11/26 11:25:19;;;;;;;5.27;2.77;;;1.30;99.90;;;;;;4958204;29;20193;-84
2023/11/26 11:27:51;;;;;;;5.03;3.20;;;1.50;99.90;;;;;;4941170;29;20287;-84
2023/11/26 11:30:52;;;;;;;5.47;2.97;;;1.50;99.90;;;;;;4940784;29;20277;-85
2023/11/26 11:33:21;;;;;;;5.30;2.83;;;1.70;99.90;;;;;;4882609;29;20234;-85
2023/11/26 11:35:50;;;;;;;5.03;2.73;;;1.60;99.90;;;;;;4898612;29;20595;-85
2023/11/26 11:38:18;;;;;;;3.60;2.43;;;1.70;99.90;;;;;;4883252;29;20214;-85
2023/11/26 11:40:58;;;;;;;4.90;2.60;;;2.10;99.90;;;;;;4898712;29;20232;-84
2023/11/26 11:43:29;;;;;;;4.50;2.50;;;2.70;99.90;;;;;;4898267;29;20236;-83
2023/11/26 11:45:58;;;;;;;6.27;2.43;;;3.00;99.90;;;;;;4897930;29;20666;-83
2023/11/26 11:48:38;;;;;;;6.20;2.30;;;3.20;99.90;;;;;;4882067;29;20578;-84
2023/11/26 11:51:32;;;;;;;3.90;2.30;;;3.00;99.90;;;;;;4897888;29;20195;-83
2023/11/26 11:54:12;;;;;;;4.47;2.37;;;2.60;99.90;;;;;;4882370;29;20279;-82
2023/11/26 11:56:41;;;;;;;4.23;2.10;;;2.70;99.90;;;;;;4882371;29;20257;-84
2023/11/26 11:59:10;;;;;;;3.73;1.97;;;2.60;99.90;;;;;;4882442;29;20658;-82
2023/11/26 12:01:39;;;;;;;4.30;2.23;;;2.30;99.90;;;;;;4867291;29;20777;-83
2023/11/26 12:04:07;;;;;;;3.27;2.10;;;2.20;99.90;;;;;;4897402;29;20246;-82
2023/11/26 12:06:41;;;;;;;4.77;2.33;;;2.30;99.90;;;;;;4882668;29;20203;-82
2023/11/26 12:09:12;;;;;;;4.90;2.20;;;2.10;99.90;;;;;;4895811;29;20205;-82
2023/11/26 12:11:43;;;;;;;5.63;2.60;;;2.10;99.90;;;;;;4939438;29;20233;-83
2023/11/26 12:14:10;;;;;;;3.87;2.50;;;1.90;99.90;;;;;;4939211;29;20311;-82
2023/11/26 12:16:38;;;;;;;3.47;2.20;;;1.60;99.90;;;;;;4939752;29;20214;-81
2023/11/26 12:19:06;;;;;;;3.80;2.40;;;1.50;99.90;;;;;;4923498;29;20203;-82
2023/11/26 12:21:34;;;;;;;4.23;2.23;;;1.50;99.90;;;;;;4956298;29;20190;-81
2023/11/26 12:24:03;;;;;;;5.87;2.90;;;1.40;99.90;;;;;;4938983;29;20252;-82
2023/11/26 12:26:35;;;;;;;6.83;2.63;;;1.30;99.90;;;;;;4956602;29;20227;-83
2023/11/26 12:29:05;;;;;;;4.20;2.50;;;1.30;99.90;;;;;;4939643;29;20724;-82
2023/11/26 12:31:34;;;;;;;6.73;2.67;;;1.30;99.90;;;;;;4956771;29;20196;-84
2023/11/26 12:34:01;;;;;;;3.83;2.50;;;1.20;99.90;;;;;;4939362;29;20351;-83
2023/11/26 12:36:29;;;;;;;4.37;2.40;;;1.30;99.90;;;;;;4956242;29;20616;-82
2023/11/26 12:38:57;;;;;;;5.50;2.57;;;1.30;99.90;;;;;;4939749;29;20197;-82
2023/11/26 12:41:25;;;;;;;4.27;2.37;;;1.40;99.90;;;;;;4922942;29;20270;-81
2023/11/26 12:43:55;;;;;;;5.07;2.40;;;1.50;99.90;;;;;;4946600;28;20739;-82
2023/11/26 12:46:28;;;;;;;4.37;2.00;;;1.70;99.90;;;;;;4975753;28;20197;-81
2023/11/26 12:48:55;;;;;;;5.73;1.90;;;1.70;99.90;;;;;;4975270;28;20200;-82
2023/11/26 12:51:25;;;;;;;3.03;2.03;;;1.50;99.90;;;;;;4975407;28;20189;-83
2023/11/26 12:53:53;;;;;;;2.50;1.90;;;1.50;99.90;;;;;;4975141;28;20579;-82
2023/11/26 12:56:22;;;;;;;4.67;2.00;;;1.40;99.90;;;;;;4974829;28;20213;-83
2023/11/26 12:58:57;;;;;;;4.37;2.20;;;1.50;99.90;;;;;;4975468;28;20189;-84
2023/11/26 13:01:26;;;;;;;3.57;2.30;;;1.40;99.90;;;;;;4942278;28;20258;-82
2023/11/26 13:03:53;;;;;;;4.37;2.57;;;1.50;99.90;;;;;;4941770;28;20283;-82
2023/11/26 13:06:25;;;;;;;6.93;2.10;;;1.40;99.90;;;;;;4975310;28;20201;-83
2023/11/26 13:09:07;;;;;;;4.77;2.30;;;1.40;99.90;;;;;;4975174;28;20197;-81